sensor_id;sensor_type;location;lat;lon;timestamp;temperature;humidity
52979;DHT22;63430;53.186;6.598;2024-02-04T00:01:11;16.50;55.10
52979;DHT22;63430;53.186;6.598;2024-02-04T00:03:15;16.50;55.10
52979;DHT22;63430;53.186;6.598;2024-02-04T00:05:18;16.50;55.10
52979;DHT22;63430;53.186;6.598;2024-02-04T00:07:25;16.50;55.10
52979;DHT22;63430;53.186;6.598;2024-02-04T00:09:30;16.50;55.10
52979;DHT22;63430;53.186;6.598;2024-02-04T00:11:36;16.50;55.10
52979;DHT22;63430;53.186;6.598;2024-02-04T00:13:39;16.50;55.10
52979;DHT22;63430;53.186;6.598;2024-02-04T00:15:43;16.50;55.10
52979;DHT22;63430;53.186;6.598;2024-02-04T00:17:46;16.50;55.20
52979;DHT22;63430;53.186;6.598;2024-02-04T00:19:50;16.50;55.30
52979;DHT22;63430;53.186;6.598;2024-02-04T00:21:53;16.50;55.00
52979;DHT22;63430;53.186;6.598;2024-02-04T00:23:59;16.40;55.00
52979;DHT22;63430;53.186;6.598;2024-02-04T00:26:04;16.50;55.00
52979;DHT22;63430;53.186;6.598;2024-02-04T00:28:07;16.50;55.00
52979;DHT22;63430;53.186;6.598;2024-02-04T00:30:15;16.50;54.90
52979;DHT22;63430;53.186;6.598;2024-02-04T00:32:18;16.50;54.90
52979;DHT22;63430;53.186;6.598;2024-02-04T00:34:21;16.50;54.90
52979;DHT22;63430;53.186;6.598;2024-02-04T00:36:25;16.50;54.80
52979;DHT22;63430;53.186;6.598;2024-02-04T00:38:28;16.50;54.80
52979;DHT22;63430;53.186;6.598;2024-02-04T00:40:34;16.50;54.90
52979;DHT22;63430;53.186;6.598;2024-02-04T00:42:40;16.40;54.70
52979;DHT22;63430;53.186;6.598;2024-02-04T00:44:42;16.40;54.70
52979;DHT22;63430;53.186;6.598;2024-02-04T00:46:47;16.50;54.80
52979;DHT22;63430;53.186;6.598;2024-02-04T00:48:50;16.40;54.70
52979;DHT22;63430;53.186;6.598;2024-02-04T00:50:53;16.50;54.70
52979;DHT22;63430;53.186;6.598;2024-02-04T00:52:55;16.40;54.60
52979;DHT22;63430;53.186;6.598;2024-02-04T00:54:58;16.40;54.60
52979;DHT22;63430;53.186;6.598;2024-02-04T00:57:04;16.40;54.60
52979;DHT22;63430;53.186;6.598;2024-02-04T00:59:09;16.40;54.50
52979;DHT22;63430;53.186;6.598;2024-02-04T01:01:12;16.40;54.50
52979;DHT22;63430;53.186;6.598;2024-02-04T01:03:15;16.40;54.50
52979;DHT22;63430;53.186;6.598;2024-02-04T01:05:17;16.30;54.40
52979;DHT22;63430;53.186;6.598;2024-02-04T01:07:20;16.40;54.40
52979;DHT22;63430;53.186;6.598;2024-02-04T01:09:23;16.40;54.40
52979;DHT22;63430;53.186;6.598;2024-02-04T01:11:25;16.40;54.40
52979;DHT22;63430;53.186;6.598;2024-02-04T01:13:31;16.30;54.30
52979;DHT22;63430;53.186;6.598;2024-02-04T01:15:33;16.40;54.30
52979;DHT22;63430;53.186;6.598;2024-02-04T01:17:36;16.30;54.30
52979;DHT22;63430;53.186;6.598;2024-02-04T01:19:38;16.40;54.30
52979;DHT22;63430;53.186;6.598;2024-02-04T01:21:41;16.30;54.20
52979;DHT22;63430;53.186;6.598;2024-02-04T01:23:44;16.30;54.20
52979;DHT22;63430;53.186;6.598;2024-02-04T01:25:47;16.40;54.20
52979;DHT22;63430;53.186;6.598;2024-02-04T01:27:49;16.30;54.00
52979;DHT22;63430;53.186;6.598;2024-02-04T01:29:55;16.40;54.10
52979;DHT22;63430;53.186;6.598;2024-02-04T01:31:58;16.40;54.10
52979;DHT22;63430;53.186;6.598;2024-02-04T01:34:01;16.30;54.00
52979;DHT22;63430;53.186;6.598;2024-02-04T01:36:05;16.40;54.00
52979;DHT22;63430;53.186;6.598;2024-02-04T01:38:07;16.40;54.00
52979;DHT22;63430;53.186;6.598;2024-02-04T01:40:11;16.30;53.80
52979;DHT22;63430;53.186;6.598;2024-02-04T01:42:15;16.30;53.80
52979;DHT22;63430;53.186;6.598;2024-02-04T01:44:18;16.30;53.70
52979;DHT22;63430;53.186;6.598;2024-02-04T01:46:25;16.30;53.70
52979;DHT22;63430;53.186;6.598;2024-02-04T01:48:30;16.30;53.70
52979;DHT22;63430;53.186;6.598;2024-02-04T01:50:33;16.30;53.70
52979;DHT22;63430;53.186;6.598;2024-02-04T01:52:38;16.30;53.70
52979;DHT22;63430;53.186;6.598;2024-02-04T01:54:42;16.30;53.60
52979;DHT22;63430;53.186;6.598;2024-02-04T01:56:47;16.30;53.60
52979;DHT22;63430;53.186;6.598;2024-02-04T01:58:52;16.30;53.60
52979;DHT22;63430;53.186;6.598;2024-02-04T02:00:55;16.20;53.50
52979;DHT22;63430;53.186;6.598;2024-02-04T02:03:02;16.30;53.50
52979;DHT22;63430;53.186;6.598;2024-02-04T02:05:08;16.30;53.50
52979;DHT22;63430;53.186;6.598;2024-02-04T02:07:13;16.20;53.40
52979;DHT22;63430;53.186;6.598;2024-02-04T02:09:20;16.20;53.30
52979;DHT22;63430;53.186;6.598;2024-02-04T02:11:40;16.20;53.20
52979;DHT22;63430;53.186;6.598;2024-02-04T02:13:47;16.20;53.20
52979;DHT22;63430;53.186;6.598;2024-02-04T02:15:56;16.20;53.10
52979;DHT22;63430;53.186;6.598;2024-02-04T02:18:07;16.20;53.10
52979;DHT22;63430;53.186;6.598;2024-02-04T02:20:16;16.20;53.00
52979;DHT22;63430;53.186;6.598;2024-02-04T02:22:29;16.20;53.00
52979;DHT22;63430;53.186;6.598;2024-02-04T02:24:38;16.20;52.90
52979;DHT22;63430;53.186;6.598;2024-02-04T02:26:43;16.20;52.80
52979;DHT22;63430;53.186;6.598;2024-02-04T02:28:45;16.20;52.80
52979;DHT22;63430;53.186;6.598;2024-02-04T02:30:48;16.20;52.70
52979;DHT22;63430;53.186;6.598;2024-02-04T02:32:51;16.20;52.60
52979;DHT22;63430;53.186;6.598;2024-02-04T02:34:53;16.20;52.50
52979;DHT22;63430;53.186;6.598;2024-02-04T02:37:01;16.20;52.50
52979;DHT22;63430;53.186;6.598;2024-02-04T02:39:12;16.30;52.50
52979;DHT22;63430;53.186;6.598;2024-02-04T02:41:21;16.20;52.40
52979;DHT22;63430;53.186;6.598;2024-02-04T02:43:24;16.20;52.30
52979;DHT22;63430;53.186;6.598;2024-02-04T02:45:27;16.30;52.40
52979;DHT22;63430;53.186;6.598;2024-02-04T02:47:30;16.20;52.20
52979;DHT22;63430;53.186;6.598;2024-02-04T02:49:33;16.20;52.20
52979;DHT22;63430;53.186;6.598;2024-02-04T02:51:36;16.20;52.10
52979;DHT22;63430;53.186;6.598;2024-02-04T02:53:38;16.30;52.10
52979;DHT22;63430;53.186;6.598;2024-02-04T02:55:41;16.20;52.10
52979;DHT22;63430;53.186;6.598;2024-02-04T02:57:46;16.20;52.10
52979;DHT22;63430;53.186;6.598;2024-02-04T02:59:49;16.20;52.00
52979;DHT22;63430;53.186;6.598;2024-02-04T03:01:51;16.30;52.00
52979;DHT22;63430;53.186;6.598;2024-02-04T03:03:54;16.20;51.90
52979;DHT22;63430;53.186;6.598;2024-02-04T03:05:57;16.20;52.00
52979;DHT22;63430;53.186;6.598;2024-02-04T03:08:00;16.20;51.90
52979;DHT22;63430;53.186;6.598;2024-02-04T03:10:02;16.20;51.90
52979;DHT22;63430;53.186;6.598;2024-02-04T03:12:06;16.20;51.90
52979;DHT22;63430;53.186;6.598;2024-02-04T03:14:11;16.20;51.90
52979;DHT22;63430;53.186;6.598;2024-02-04T03:16:16;16.20;51.90
52979;DHT22;63430;53.186;6.598;2024-02-04T03:18:19;16.20;51.90
52979;DHT22;63430;53.186;6.598;2024-02-04T03:20:21;16.20;51.90
52979;DHT22;63430;53.186;6.598;2024-02-04T03:22:24;16.20;52.00
52979;DHT22;63430;53.186;6.598;2024-02-04T03:24:27;16.20;51.90
52979;DHT22;63430;53.186;6.598;2024-02-04T03:26:31;16.20;52.00
52979;DHT22;63430;53.186;6.598;2024-02-04T03:28:34;16.20;51.90
52979;DHT22;63430;53.186;6.598;2024-02-04T03:30:39;16.20;51.90
52979;DHT22;63430;53.186;6.598;2024-02-04T03:32:42;16.20;51.90
52979;DHT22;63430;53.186;6.598;2024-02-04T03:34:45;16.20;52.00
52979;DHT22;63430;53.186;6.598;2024-02-04T03:36:49;16.20;52.00
52979;DHT22;63430;53.186;6.598;2024-02-04T03:38:52;16.20;52.00
52979;DHT22;63430;53.186;6.598;2024-02-04T03:40:54;16.20;52.00
52979;DHT22;63430;53.186;6.598;2024-02-04T03:42:57;16.20;52.00
52979;DHT22;63430;53.186;6.598;2024-02-04T03:44:59;16.20;52.10
52979;DHT22;63430;53.186;6.598;2024-02-04T03:47:07;16.20;52.10
52979;DHT22;63430;53.186;6.598;2024-02-04T03:49:09;16.20;52.10
52979;DHT22;63430;53.186;6.598;2024-02-04T03:51:15;16.20;52.10
52979;DHT22;63430;53.186;6.598;2024-02-04T03:53:18;16.20;52.20
52979;DHT22;63430;53.186;6.598;2024-02-04T03:55:23;16.10;52.10
52979;DHT22;63430;53.186;6.598;2024-02-04T03:57:25;16.20;52.20
52979;DHT22;63430;53.186;6.598;2024-02-04T03:59:28;16.20;52.30
52979;DHT22;63430;53.186;6.598;2024-02-04T04:01:31;16.20;52.20
52979;DHT22;63430;53.186;6.598;2024-02-04T04:03:39;16.20;52.20
52979;DHT22;63430;53.186;6.598;2024-02-04T04:05:41;16.10;52.10
52979;DHT22;63430;53.186;6.598;2024-02-04T04:07:44;16.10;52.20
52979;DHT22;63430;53.186;6.598;2024-02-04T04:09:47;16.10;52.10
52979;DHT22;63430;53.186;6.598;2024-02-04T04:11:49;16.20;52.20
52979;DHT22;63430;53.186;6.598;2024-02-04T04:13:52;16.20;52.20
52979;DHT22;63430;53.186;6.598;2024-02-04T04:15:55;16.20;52.30
52979;DHT22;63430;53.186;6.598;2024-02-04T04:17:58;16.20;52.20
52979;DHT22;63430;53.186;6.598;2024-02-04T04:20:06;16.20;52.20
52979;DHT22;63430;53.186;6.598;2024-02-04T04:22:11;16.20;52.20
52979;DHT22;63430;53.186;6.598;2024-02-04T04:24:15;16.20;52.20
52979;DHT22;63430;53.186;6.598;2024-02-04T04:26:22;16.20;52.20
52979;DHT22;63430;53.186;6.598;2024-02-04T04:28:26;16.20;52.30
52979;DHT22;63430;53.186;6.598;2024-02-04T04:30:30;16.20;52.20
52979;DHT22;63430;53.186;6.598;2024-02-04T04:32:33;16.20;52.20
52979;DHT22;63430;53.186;6.598;2024-02-04T04:34:37;16.20;52.20
52979;DHT22;63430;53.186;6.598;2024-02-04T04:36:43;16.20;52.20
52979;DHT22;63430;53.186;6.598;2024-02-04T04:38:46;16.10;52.20
52979;DHT22;63430;53.186;6.598;2024-02-04T04:40:53;16.20;52.20
52979;DHT22;63430;53.186;6.598;2024-02-04T04:42:56;16.20;52.20
52979;DHT22;63430;53.186;6.598;2024-02-04T04:44:59;16.20;52.20
52979;DHT22;63430;53.186;6.598;2024-02-04T04:47:03;16.20;52.20
52979;DHT22;63430;53.186;6.598;2024-02-04T04:49:07;16.20;52.30
52979;DHT22;63430;53.186;6.598;2024-02-04T04:51:11;16.20;52.30
52979;DHT22;63430;53.186;6.598;2024-02-04T04:53:17;16.10;52.20
52979;DHT22;63430;53.186;6.598;2024-02-04T04:55:21;16.20;52.20
52979;DHT22;63430;53.186;6.598;2024-02-04T04:57:24;16.10;52.20
52979;DHT22;63430;53.186;6.598;2024-02-04T04:59:27;16.10;52.20
52979;DHT22;63430;53.186;6.598;2024-02-04T05:01:31;16.10;52.20
52979;DHT22;63430;53.186;6.598;2024-02-04T05:03:34;16.10;52.20
52979;DHT22;63430;53.186;6.598;2024-02-04T05:05:38;16.10;52.20
52979;DHT22;63430;53.186;6.598;2024-02-04T05:07:42;16.10;52.30
52979;DHT22;63430;53.186;6.598;2024-02-04T05:09:51;16.10;52.20
52979;DHT22;63430;53.186;6.598;2024-02-04T05:11:54;16.10;52.20
52979;DHT22;63430;53.186;6.598;2024-02-04T05:13:59;16.00;52.30
52979;DHT22;63430;53.186;6.598;2024-02-04T05:16:02;16.10;52.40
52979;DHT22;63430;53.186;6.598;2024-02-04T05:18:06;16.10;52.40
52979;DHT22;63430;53.186;6.598;2024-02-04T05:20:10;16.10;52.40
52979;DHT22;63430;53.186;6.598;2024-02-04T05:22:13;16.00;52.30
52979;DHT22;63430;53.186;6.598;2024-02-04T05:24:17;16.10;52.40
52979;DHT22;63430;53.186;6.598;2024-02-04T05:26:23;16.10;52.40
52979;DHT22;63430;53.186;6.598;2024-02-04T05:28:26;16.10;52.40
52979;DHT22;63430;53.186;6.598;2024-02-04T05:30:29;16.10;52.40
52979;DHT22;63430;53.186;6.598;2024-02-04T05:32:33;16.10;52.40
52979;DHT22;63430;53.186;6.598;2024-02-04T05:34:37;16.10;52.40
52979;DHT22;63430;53.186;6.598;2024-02-04T05:36:41;16.10;52.40
52979;DHT22;63430;53.186;6.598;2024-02-04T05:38:46;16.10;52.40
52979;DHT22;63430;53.186;6.598;2024-02-04T05:40:49;16.10;52.50
52979;DHT22;63430;53.186;6.598;2024-02-04T05:42:55;16.00;52.40
52979;DHT22;63430;53.186;6.598;2024-02-04T05:44:58;16.10;52.50
52979;DHT22;63430;53.186;6.598;2024-02-04T05:47:02;16.00;52.40
52979;DHT22;63430;53.186;6.598;2024-02-04T05:49:05;16.10;52.40
52979;DHT22;63430;53.186;6.598;2024-02-04T05:51:08;16.10;52.40
52979;DHT22;63430;53.186;6.598;2024-02-04T05:53:10;16.10;52.40
52979;DHT22;63430;53.186;6.598;2024-02-04T05:55:13;16.10;52.30
52979;DHT22;63430;53.186;6.598;2024-02-04T05:57:16;16.10;52.30
52979;DHT22;63430;53.186;6.598;2024-02-04T05:59:21;16.10;52.30
52979;DHT22;63430;53.186;6.598;2024-02-04T06:01:23;16.10;52.30
52979;DHT22;63430;53.186;6.598;2024-02-04T06:03:26;16.10;52.30
52979;DHT22;63430;53.186;6.598;2024-02-04T06:05:32;16.10;52.20
52979;DHT22;63430;53.186;6.598;2024-02-04T06:07:35;16.10;52.20
52979;DHT22;63430;53.186;6.598;2024-02-04T06:09:37;16.10;52.90
52979;DHT22;63430;53.186;6.598;2024-02-04T06:11:40;16.00;52.20
52979;DHT22;63430;53.186;6.598;2024-02-04T06:13:43;16.10;52.20
52979;DHT22;63430;53.186;6.598;2024-02-04T06:15:49;16.10;52.20
52979;DHT22;63430;53.186;6.598;2024-02-04T06:17:52;16.10;52.20
52979;DHT22;63430;53.186;6.598;2024-02-04T06:19:54;16.10;52.20
52979;DHT22;63430;53.186;6.598;2024-02-04T06:21:57;16.10;52.10
52979;DHT22;63430;53.186;6.598;2024-02-04T06:24:00;16.10;52.10
52979;DHT22;63430;53.186;6.598;2024-02-04T06:26:02;16.00;52.10
52979;DHT22;63430;53.186;6.598;2024-02-04T06:28:05;16.10;52.10
52979;DHT22;63430;53.186;6.598;2024-02-04T06:30:10;16.10;52.10
52979;DHT22;63430;53.186;6.598;2024-02-04T06:32:16;16.10;52.10
52979;DHT22;63430;53.186;6.598;2024-02-04T06:34:22;16.10;52.10
52979;DHT22;63430;53.186;6.598;2024-02-04T06:36:25;16.10;52.00
52979;DHT22;63430;53.186;6.598;2024-02-04T06:38:28;16.10;52.00
52979;DHT22;63430;53.186;6.598;2024-02-04T06:40:30;16.10;52.10
52979;DHT22;63430;53.186;6.598;2024-02-04T06:42:32;16.10;51.90
52979;DHT22;63430;53.186;6.598;2024-02-04T06:44:35;16.10;51.90
52979;DHT22;63430;53.186;6.598;2024-02-04T06:46:38;16.10;51.90
52979;DHT22;63430;53.186;6.598;2024-02-04T06:48:43;16.10;51.80
52979;DHT22;63430;53.186;6.598;2024-02-04T06:50:47;16.10;51.80
52979;DHT22;63430;53.186;6.598;2024-02-04T06:52:51;16.10;51.80
52979;DHT22;63430;53.186;6.598;2024-02-04T06:54:54;16.10;51.80
52979;DHT22;63430;53.186;6.598;2024-02-04T06:56:58;16.10;51.80
52979;DHT22;63430;53.186;6.598;2024-02-04T06:59:01;16.10;51.70
52979;DHT22;63430;53.186;6.598;2024-02-04T07:01:04;16.10;51.70
52979;DHT22;63430;53.186;6.598;2024-02-04T07:03:08;16.10;52.30
52979;DHT22;63430;53.186;6.598;2024-02-04T07:05:14;16.10;51.60
52979;DHT22;63430;53.186;6.598;2024-02-04T07:07:19;16.10;51.60
52979;DHT22;63430;53.186;6.598;2024-02-04T07:09:22;16.10;51.80
52979;DHT22;63430;53.186;6.598;2024-02-04T07:11:25;16.00;51.50
52979;DHT22;63430;53.186;6.598;2024-02-04T07:13:29;16.10;51.50
52979;DHT22;63430;53.186;6.598;2024-02-04T07:15:32;16.10;51.50
52979;DHT22;63430;53.186;6.598;2024-02-04T07:17:35;16.10;51.40
52979;DHT22;63430;53.186;6.598;2024-02-04T07:19:39;16.10;51.40
52979;DHT22;63430;53.186;6.598;2024-02-04T07:21:44;16.10;51.40
52979;DHT22;63430;53.186;6.598;2024-02-04T07:23:47;16.10;51.30
52979;DHT22;63430;53.186;6.598;2024-02-04T07:25:50;16.10;51.30
52979;DHT22;63430;53.186;6.598;2024-02-04T07:27:53;16.10;51.20
52979;DHT22;63430;53.186;6.598;2024-02-04T07:29:56;16.10;51.20
52979;DHT22;63430;53.186;6.598;2024-02-04T07:31:59;16.10;51.20
52979;DHT22;63430;53.186;6.598;2024-02-04T07:34:02;16.10;51.10
52979;DHT22;63430;53.186;6.598;2024-02-04T07:36:06;16.10;51.10
52979;DHT22;63430;53.186;6.598;2024-02-04T07:38:11;16.10;51.10
52979;DHT22;63430;53.186;6.598;2024-02-04T07:40:13;16.10;51.10
52979;DHT22;63430;53.186;6.598;2024-02-04T07:42:16;16.00;51.00
52979;DHT22;63430;53.186;6.598;2024-02-04T07:44:19;16.10;51.00
52979;DHT22;63430;53.186;6.598;2024-02-04T07:46:21;16.10;51.60
52979;DHT22;63430;53.186;6.598;2024-02-04T07:48:24;16.10;51.00
52979;DHT22;63430;53.186;6.598;2024-02-04T07:50:26;16.10;51.00
52979;DHT22;63430;53.186;6.598;2024-02-04T07:52:29;16.10;51.00
52979;DHT22;63430;53.186;6.598;2024-02-04T07:54:34;16.10;51.00
52979;DHT22;63430;53.186;6.598;2024-02-04T07:56:37;16.10;51.00
52979;DHT22;63430;53.186;6.598;2024-02-04T07:58:39;16.10;51.00
52979;DHT22;63430;53.186;6.598;2024-02-04T08:00:42;16.10;51.60
52979;DHT22;63430;53.186;6.598;2024-02-04T08:02:45;16.10;51.00
52979;DHT22;63430;53.186;6.598;2024-02-04T08:04:47;16.10;50.90
52979;DHT22;63430;53.186;6.598;2024-02-04T08:06:51;16.10;51.00
52979;DHT22;63430;53.186;6.598;2024-02-04T08:08:55;16.10;51.00
52979;DHT22;63430;53.186;6.598;2024-02-04T08:11:00;16.10;50.90
52979;DHT22;63430;53.186;6.598;2024-02-04T08:13:03;16.10;50.90
52979;DHT22;63430;53.186;6.598;2024-02-04T08:15:09;16.10;50.90
52979;DHT22;63430;53.186;6.598;2024-02-04T08:17:12;16.10;50.90
52979;DHT22;63430;53.186;6.598;2024-02-04T08:19:14;16.10;50.90
52979;DHT22;63430;53.186;6.598;2024-02-04T08:21:18;16.10;50.90
52979;DHT22;63430;53.186;6.598;2024-02-04T08:23:22;16.10;50.90
52979;DHT22;63430;53.186;6.598;2024-02-04T08:25:25;16.10;50.90
52979;DHT22;63430;53.186;6.598;2024-02-04T08:27:31;16.10;51.00
52979;DHT22;63430;53.186;6.598;2024-02-04T08:29:33;16.10;51.00
52979;DHT22;63430;53.186;6.598;2024-02-04T08:31:36;16.20;51.00
52979;DHT22;63430;53.186;6.598;2024-02-04T08:33:38;16.10;51.00
52979;DHT22;63430;53.186;6.598;2024-02-04T08:35:41;16.10;51.00
52979;DHT22;63430;53.186;6.598;2024-02-04T08:37:43;16.10;51.00
52979;DHT22;63430;53.186;6.598;2024-02-04T08:39:46;16.10;51.10
52979;DHT22;63430;53.186;6.598;2024-02-04T08:41:49;16.10;51.80
52979;DHT22;63430;53.186;6.598;2024-02-04T08:43:54;16.10;51.20
52979;DHT22;63430;53.186;6.598;2024-02-04T08:45:56;16.10;51.20
52979;DHT22;63430;53.186;6.598;2024-02-04T08:48:09;16.20;51.30
52979;DHT22;63430;53.186;6.598;2024-02-04T08:50:12;16.10;51.20
52979;DHT22;63430;53.186;6.598;2024-02-04T08:52:14;16.10;51.30
52979;DHT22;63430;53.186;6.598;2024-02-04T08:54:17;16.20;51.30
52979;DHT22;63430;53.186;6.598;2024-02-04T08:56:19;16.10;51.40
52979;DHT22;63430;53.186;6.598;2024-02-04T08:58:22;16.10;51.30
52979;DHT22;63430;53.186;6.598;2024-02-04T09:00:27;16.20;51.40
52979;DHT22;63430;53.186;6.598;2024-02-04T09:02:30;16.20;51.40
52979;DHT22;63430;53.186;6.598;2024-02-04T09:04:35;16.20;51.40
52979;DHT22;63430;53.186;6.598;2024-02-04T09:06:43;16.10;51.40
52979;DHT22;63430;53.186;6.598;2024-02-04T09:08:46;16.20;51.40
52979;DHT22;63430;53.186;6.598;2024-02-04T09:10:49;16.20;51.50
52979;DHT22;63430;53.186;6.598;2024-02-04T09:12:51;16.20;51.50
52979;DHT22;63430;53.186;6.598;2024-02-04T09:14:54;16.20;51.40
52979;DHT22;63430;53.186;6.598;2024-02-04T09:17:01;16.20;51.40
52979;DHT22;63430;53.186;6.598;2024-02-04T09:19:04;16.20;51.50
52979;DHT22;63430;53.186;6.598;2024-02-04T09:21:08;16.20;51.50
52979;DHT22;63430;53.186;6.598;2024-02-04T09:23:11;16.30;51.60
52979;DHT22;63430;53.186;6.598;2024-02-04T09:25:14;16.30;51.60
52979;DHT22;63430;53.186;6.598;2024-02-04T09:27:18;16.30;51.60
52979;DHT22;63430;53.186;6.598;2024-02-04T09:29:23;16.30;51.60
52979;DHT22;63430;53.186;6.598;2024-02-04T09:31:27;16.30;51.60
52979;DHT22;63430;53.186;6.598;2024-02-04T09:33:34;16.30;51.60
52979;DHT22;63430;53.186;6.598;2024-02-04T09:35:38;16.30;51.60
52979;DHT22;63430;53.186;6.598;2024-02-04T09:37:42;16.30;51.70
52979;DHT22;63430;53.186;6.598;2024-02-04T09:39:46;16.30;51.60
52979;DHT22;63430;53.186;6.598;2024-02-04T09:41:50;16.30;51.60
52979;DHT22;63430;53.186;6.598;2024-02-04T09:43:54;16.30;51.60
52979;DHT22;63430;53.186;6.598;2024-02-04T09:45:59;16.30;51.60
52979;DHT22;63430;53.186;6.598;2024-02-04T09:48:04;16.40;51.60
52979;DHT22;63430;53.186;6.598;2024-02-04T09:50:12;16.40;51.60
52979;DHT22;63430;53.186;6.598;2024-02-04T09:52:27;16.40;51.60
52979;DHT22;63430;53.186;6.598;2024-02-04T09:54:32;16.40;51.60
52979;DHT22;63430;53.186;6.598;2024-02-04T09:56:38;16.30;51.60
52979;DHT22;63430;53.186;6.598;2024-02-04T09:58:43;16.40;51.60
52979;DHT22;63430;53.186;6.598;2024-02-04T10:00:47;16.40;51.50
52979;DHT22;63430;53.186;6.598;2024-02-04T10:02:51;16.40;51.60
52979;DHT22;63430;53.186;6.598;2024-02-04T10:04:56;16.40;51.50
52979;DHT22;63430;53.186;6.598;2024-02-04T10:07:02;16.40;51.60
52979;DHT22;63430;53.186;6.598;2024-02-04T10:09:07;16.40;51.50
52979;DHT22;63430;53.186;6.598;2024-02-04T10:11:13;16.40;52.10
52979;DHT22;63430;53.186;6.598;2024-02-04T10:13:17;16.40;51.60
52979;DHT22;63430;53.186;6.598;2024-02-04T10:15:20;16.40;51.50
52979;DHT22;63430;53.186;6.598;2024-02-04T10:17:25;16.40;51.50
52979;DHT22;63430;53.186;6.598;2024-02-04T10:19:30;16.50;51.50
52979;DHT22;63430;53.186;6.598;2024-02-04T10:21:34;16.50;51.50
52979;DHT22;63430;53.186;6.598;2024-02-04T10:23:39;16.50;51.50
52979;DHT22;63430;53.186;6.598;2024-02-04T10:25:41;16.50;51.50
52979;DHT22;63430;53.186;6.598;2024-02-04T10:27:44;16.50;51.60
52979;DHT22;63430;53.186;6.598;2024-02-04T10:29:48;16.40;51.50
52979;DHT22;63430;53.186;6.598;2024-02-04T10:31:53;16.40;51.50
52979;DHT22;63430;53.186;6.598;2024-02-04T10:33:56;16.40;51.50
52979;DHT22;63430;53.186;6.598;2024-02-04T10:36:00;16.40;51.60
52979;DHT22;63430;53.186;6.598;2024-02-04T10:38:03;16.40;51.50
52979;DHT22;63430;53.186;6.598;2024-02-04T10:40:10;16.40;51.60
52979;DHT22;63430;53.186;6.598;2024-02-04T10:42:13;16.40;51.50
52979;DHT22;63430;53.186;6.598;2024-02-04T10:44:18;16.40;51.60
52979;DHT22;63430;53.186;6.598;2024-02-04T10:46:23;16.50;51.70
52979;DHT22;63430;53.186;6.598;2024-02-04T10:48:34;16.40;51.60
52979;DHT22;63430;53.186;6.598;2024-02-04T10:50:46;16.40;51.60
52979;DHT22;63430;53.186;6.598;2024-02-04T10:52:50;16.40;51.60
52979;DHT22;63430;53.186;6.598;2024-02-04T10:54:53;16.40;51.60
52979;DHT22;63430;53.186;6.598;2024-02-04T10:57:03;16.40;52.20
52979;DHT22;63430;53.186;6.598;2024-02-04T10:59:08;16.40;51.50
52979;DHT22;63430;53.186;6.598;2024-02-04T11:01:12;16.40;51.50
52979;DHT22;63430;53.186;6.598;2024-02-04T11:03:15;16.40;51.60
52979;DHT22;63430;53.186;6.598;2024-02-04T11:05:23;16.40;51.50
52979;DHT22;63430;53.186;6.598;2024-02-04T11:07:28;16.30;51.40
52979;DHT22;63430;53.186;6.598;2024-02-04T11:09:32;16.40;51.50
52979;DHT22;63430;53.186;6.598;2024-02-04T11:11:35;16.40;51.50
52979;DHT22;63430;53.186;6.598;2024-02-04T11:13:42;16.40;51.50
52979;DHT22;63430;53.186;6.598;2024-02-04T11:15:46;16.40;51.30
52979;DHT22;63430;53.186;6.598;2024-02-04T11:20:42;16.40;51.20
52979;DHT22;63430;53.186;6.598;2024-02-04T11:23:03;16.40;51.30
52979;DHT22;63430;53.186;6.598;2024-02-04T11:25:33;16.40;51.30
52979;DHT22;63430;53.186;6.598;2024-02-04T11:27:40;16.40;51.30
52979;DHT22;63430;53.186;6.598;2024-02-04T11:29:48;16.40;51.30
52979;DHT22;63430;53.186;6.598;2024-02-04T11:31:51;16.40;51.30
52979;DHT22;63430;53.186;6.598;2024-02-04T11:33:56;16.40;51.30
52979;DHT22;63430;53.186;6.598;2024-02-04T11:36:03;16.40;51.30
52979;DHT22;63430;53.186;6.598;2024-02-04T11:38:06;16.40;51.30
52979;DHT22;63430;53.186;6.598;2024-02-04T11:40:14;16.40;51.30
52979;DHT22;63430;53.186;6.598;2024-02-04T11:42:19;16.40;51.30
52979;DHT22;63430;53.186;6.598;2024-02-04T11:44:23;16.40;51.20
52979;DHT22;63430;53.186;6.598;2024-02-04T11:46:30;16.40;51.20
52979;DHT22;63430;53.186;6.598;2024-02-04T11:48:36;16.40;51.20
52979;DHT22;63430;53.186;6.598;2024-02-04T11:50:41;16.40;51.20
52979;DHT22;63430;53.186;6.598;2024-02-04T11:52:44;16.50;51.20
52979;DHT22;63430;53.186;6.598;2024-02-04T11:54:47;16.40;51.20
52979;DHT22;63430;53.186;6.598;2024-02-04T11:56:50;16.40;51.10
52979;DHT22;63430;53.186;6.598;2024-02-04T11:58:58;16.50;51.20
52979;DHT22;63430;53.186;6.598;2024-02-04T12:01:01;16.50;51.20
52979;DHT22;63430;53.186;6.598;2024-02-04T12:03:08;16.50;51.20
52979;DHT22;63430;53.186;6.598;2024-02-04T12:05:11;16.50;51.30
52979;DHT22;63430;53.186;6.598;2024-02-04T12:07:14;16.50;51.30
52979;DHT22;63430;53.186;6.598;2024-02-04T12:09:18;16.50;51.30
52979;DHT22;63430;53.186;6.598;2024-02-04T12:11:25;16.50;51.30
52979;DHT22;63430;53.186;6.598;2024-02-04T12:13:28;16.50;51.40
52979;DHT22;63430;53.186;6.598;2024-02-04T12:15:32;16.50;51.40
52979;DHT22;63430;53.186;6.598;2024-02-04T12:17:36;16.50;51.40
52979;DHT22;63430;53.186;6.598;2024-02-04T12:19:41;16.50;51.40
52979;DHT22;63430;53.186;6.598;2024-02-04T12:21:49;16.50;51.50
52979;DHT22;63430;53.186;6.598;2024-02-04T12:23:52;16.50;51.60
52979;DHT22;63430;53.186;6.598;2024-02-04T12:25:54;16.50;51.70
52979;DHT22;63430;53.186;6.598;2024-02-04T12:27:58;16.50;51.60
52979;DHT22;63430;53.186;6.598;2024-02-04T12:30:02;16.50;51.70
52979;DHT22;63430;53.186;6.598;2024-02-04T12:32:08;16.50;51.70
52979;DHT22;63430;53.186;6.598;2024-02-04T12:34:13;16.50;51.70
52979;DHT22;63430;53.186;6.598;2024-02-04T12:36:20;16.60;51.90
52979;DHT22;63430;53.186;6.598;2024-02-04T12:38:23;16.60;51.80
52979;DHT22;63430;53.186;6.598;2024-02-04T12:40:28;16.50;51.80
52979;DHT22;63430;53.186;6.598;2024-02-04T12:42:31;16.60;51.90
52979;DHT22;63430;53.186;6.598;2024-02-04T12:44:37;16.60;51.80
52979;DHT22;63430;53.186;6.598;2024-02-04T12:46:41;16.60;51.90
52979;DHT22;63430;53.186;6.598;2024-02-04T12:48:44;16.50;51.90
52979;DHT22;63430;53.186;6.598;2024-02-04T12:50:48;16.50;51.90
52979;DHT22;63430;53.186;6.598;2024-02-04T12:53:05;16.50;51.80
52979;DHT22;63430;53.186;6.598;2024-02-04T12:55:19;16.50;51.80
52979;DHT22;63430;53.186;6.598;2024-02-04T12:57:23;16.50;51.80
52979;DHT22;63430;53.186;6.598;2024-02-04T12:59:28;16.60;51.80
52979;DHT22;63430;53.186;6.598;2024-02-04T13:01:33;16.60;51.80
52979;DHT22;63430;53.186;6.598;2024-02-04T13:03:37;16.50;51.80
52979;DHT22;63430;53.186;6.598;2024-02-04T13:05:40;16.50;51.70
52979;DHT22;63430;53.186;6.598;2024-02-04T13:07:42;16.60;51.70